sensor_id;sensor_type;location;lat;lon;timestamp;pressure;altitude;pressure_sealevel;temperature;humidity
27429;BME280;14881;48.092;11.574;2023-01-25T00:02:18;96865.41;;;0.27;100.00
27429;BME280;14881;48.092;11.574;2023-01-25T00:04:47;96861.34;;;0.31;100.00
27429;BME280;14881;48.092;11.574;2023-01-25T00:07:14;96867.06;;;0.28;100.00
27429;BME280;14881;48.092;11.574;2023-01-25T00:09:42;96865.47;;;0.33;100.00
27429;BME280;14881;48.092;11.574;2023-01-25T00:12:10;96868.72;;;0.29;100.00
27429;BME280;14881;48.092;11.574;2023-01-25T00:14:37;96867.69;;;0.30;100.00
27429;BME280;14881;48.092;11.574;2023-01-25T00:17:05;96863.38;;;0.29;100.00
27429;BME280;14881;48.092;11.574;2023-01-25T00:19:33;96864.56;;;0.26;100.00
27429;BME280;14881;48.092;11.574;2023-01-25T00:22:02;96867.25;;;0.26;100.00
27429;BME280;14881;48.092;11.574;2023-01-25T00:24:29;96866.41;;;0.26;100.00
27429;BME280;14881;48.092;11.574;2023-01-25T00:26:57;96860.69;;;0.29;100.00
27429;BME280;14881;48.092;11.574;2023-01-25T00:29:25;96864.66;;;0.33;100.00
27429;BME280;14881;48.092;11.574;2023-01-25T00:31:57;96863.56;;;0.27;100.00
27429;BME280;14881;48.092;11.574;2023-01-25T00:34:45;96860.63;;;0.22;100.00
27429;BME280;14881;48.092;11.574;2023-01-25T00:37:19;96862.91;;;0.25;100.00
27429;BME280;14881;48.092;11.574;2023-01-25T00:39:50;96864.44;;;0.13;100.00
27429;BME280;14881;48.092;11.574;2023-01-25T00:42:18;96858.50;;;0.18;100.00
27429;BME280;14881;48.092;11.574;2023-01-25T00:44:47;96853.75;;;0.13;100.00
27429;BME280;14881;48.092;11.574;2023-01-25T00:47:15;96857.72;;;0.17;100.00
27429;BME280;14881;48.092;11.574;2023-01-25T00:49:44;96855.84;;;0.18;100.00
27429;BME280;14881;48.092;11.574;2023-01-25T00:52:12;96854.63;;;0.20;100.00
27429;BME280;14881;48.092;11.574;2023-01-25T00:54:41;96848.91;;;0.23;100.00
27429;BME280;14881;48.092;11.574;2023-01-25T00:57:09;96855.09;;;0.24;100.00
27429;BME280;14881;48.092;11.574;2023-01-25T00:59:36;96858.13;;;0.21;100.00
27429;BME280;14881;48.092;11.574;2023-01-25T01:02:04;96853.06;;;0.26;100.00
27429;BME280;14881;48.092;11.574;2023-01-25T01:04:32;96856.38;;;0.28;100.00
27429;BME280;14881;48.092;11.574;2023-01-25T01:07:00;96864.13;;;0.23;100.00
27429;BME280;14881;48.092;11.574;2023-01-25T01:09:27;96855.72;;;0.26;100.00
27429;BME280;14881;48.092;11.574;2023-01-25T01:11:56;96851.97;;;0.20;100.00
27429;BME280;14881;48.092;11.574;2023-01-25T01:14:24;96852.56;;;0.16;100.00
27429;BME280;14881;48.092;11.574;2023-01-25T01:16:55;96857.06;;;0.15;100.00
27429;BME280;14881;48.092;11.574;2023-01-25T01:19:23;96858.28;;;0.13;100.00
27429;BME280;14881;48.092;11.574;2023-01-25T01:21:51;96861.63;;;0.21;100.00
27429;BME280;14881;48.092;11.574;2023-01-25T01:24:19;96858.72;;;0.16;100.00
27429;BME280;14881;48.092;11.574;2023-01-25T01:26:46;96854.59;;;0.14;100.00
27429;BME280;14881;48.092;11.574;2023-01-25T01:29:15;96855.97;;;0.10;100.00
27429;BME280;14881;48.092;11.574;2023-01-25T01:31:43;96852.28;;;0.11;100.00
27429;BME280;14881;48.092;11.574;2023-01-25T01:34:12;96842.44;;;0.11;100.00
27429;BME280;14881;48.092;11.574;2023-01-25T01:36:40;96842.63;;;0.10;100.00
27429;BME280;14881;48.092;11.574;2023-01-25T01:39:08;96834.81;;;0.08;100.00
27429;BME280;14881;48.092;11.574;2023-01-25T01:41:36;96835.50;;;0.17;100.00
27429;BME280;14881;48.092;11.574;2023-01-25T01:44:04;96847.41;;;0.14;100.00
27429;BME280;14881;48.092;11.574;2023-01-25T01:46:34;96841.78;;;0.09;100.00
27429;BME280;14881;48.092;11.574;2023-01-25T01:49:05;96843.00;;;0.07;100.00
27429;BME280;14881;48.092;11.574;2023-01-25T01:51:46;96845.84;;;0.05;100.00
27429;BME280;14881;48.092;11.574;2023-01-25T01:54:17;96839.88;;;0.03;100.00
27429;BME280;14881;48.092;11.574;2023-01-25T01:56:53;96848.91;;;0.02;100.00
27429;BME280;14881;48.092;11.574;2023-01-25T01:59:26;96844.81;;;-0.01;100.00
27429;BME280;14881;48.092;11.574;2023-01-25T02:01:56;96841.84;;;-0.06;100.00
27429;BME280;14881;48.092;11.574;2023-01-25T02:04:25;96847.88;;;0.03;100.00
27429;BME280;14881;48.092;11.574;2023-01-25T02:06:58;96831.88;;;0.03;100.00
27429;BME280;14881;48.092;11.574;2023-01-25T02:09:28;96836.81;;;0.06;100.00
27429;BME280;14881;48.092;11.574;2023-01-25T02:11:56;96834.16;;;0.06;100.00
27429;BME280;14881;48.092;11.574;2023-01-25T02:14:27;96841.53;;;0.04;100.00
27429;BME280;14881;48.092;11.574;2023-01-25T02:16:57;96834.41;;;0.11;100.00
27429;BME280;14881;48.092;11.574;2023-01-25T02:19:33;96845.94;;;0.12;100.00
27429;BME280;14881;48.092;11.574;2023-01-25T02:22:08;96843.81;;;0.07;100.00
27429;BME280;14881;48.092;11.574;2023-01-25T02:24:42;96839.50;;;0.06;100.00
27429;BME280;14881;48.092;11.574;2023-01-25T02:27:13;96839.31;;;0.08;100.00
27429;BME280;14881;48.092;11.574;2023-01-25T02:29:42;96838.69;;;0.06;100.00
27429;BME280;14881;48.092;11.574;2023-01-25T02:32:13;96838.03;;;0.04;100.00
27429;BME280;14881;48.092;11.574;2023-01-25T02:34:42;96834.41;;;0.11;100.00
27429;BME280;14881;48.092;11.574;2023-01-25T02:37:12;96836.81;;;0.06;100.00
27429;BME280;14881;48.092;11.574;2023-01-25T02:39:41;96840.06;;;0.02;100.00
27429;BME280;14881;48.092;11.574;2023-01-25T02:42:09;96831.75;;;0.11;100.00
27429;BME280;14881;48.092;11.574;2023-01-25T02:44:38;96832.31;;;0.07;100.00
27429;BME280;14881;48.092;11.574;2023-01-25T02:47:05;96831.94;;;0.10;100.00
27429;BME280;14881;48.092;11.574;2023-01-25T02:49:34;96819.53;;;0.02;100.00
27429;BME280;14881;48.092;11.574;2023-01-25T02:52:03;96820.34;;;0.03;100.00
27429;BME280;14881;48.092;11.574;2023-01-25T02:54:31;96825.47;;;-0.03;100.00
27429;BME280;14881;48.092;11.574;2023-01-25T02:56:59;96818.91;;;0.00;100.00
27429;BME280;14881;48.092;11.574;2023-01-25T02:59:27;96824.88;;;0.02;100.00
27429;BME280;14881;48.092;11.574;2023-01-25T03:01:56;96812.97;;;0.05;100.00
27429;BME280;14881;48.092;11.574;2023-01-25T03:04:24;96820.75;;;-0.01;100.00
27429;BME280;14881;48.092;11.574;2023-01-25T03:06:52;96815.19;;;0.01;100.00
27429;BME280;14881;48.092;11.574;2023-01-25T03:09:19;96814.59;;;-0.01;100.00
27429;BME280;14881;48.092;11.574;2023-01-25T03:11:47;96819.53;;;0.02;100.00
27429;BME280;14881;48.092;11.574;2023-01-25T03:14:16;96810.31;;;0.05;100.00
27429;BME280;14881;48.092;11.574;2023-01-25T03:16:44;96814.19;;;0.02;100.00
27429;BME280;14881;48.092;11.574;2023-01-25T03:19:13;96810.38;;;0.11;100.00
27429;BME280;14881;48.092;11.574;2023-01-25T03:21:41;96806.81;;;0.04;100.00
27429;BME280;14881;48.092;11.574;2023-01-25T03:24:09;96813.44;;;0.08;100.00
27429;BME280;14881;48.092;11.574;2023-01-25T03:26:39;96806.25;;;0.09;100.00
27429;BME280;14881;48.092;11.574;2023-01-25T03:29:22;96796.31;;;0.03;100.00
27429;BME280;14881;48.092;11.574;2023-01-25T03:31:50;96798.16;;;0.02;100.00
27429;BME280;14881;48.092;11.574;2023-01-25T03:34:19;96800.06;;;0.08;100.00
27429;BME280;14881;48.092;11.574;2023-01-25T03:36:47;96809.03;;;0.00;100.00
27429;BME280;14881;48.092;11.574;2023-01-25T03:39:19;96807.44;;;0.06;100.00
27429;BME280;14881;48.092;11.574;2023-01-25T03:41:51;96805.97;;;0.04;100.00
27429;BME280;14881;48.092;11.574;2023-01-25T03:44:19;96794.88;;;0.00;100.00
27429;BME280;14881;48.092;11.574;2023-01-25T03:46:46;96794.88;;;0.00;100.00
27429;BME280;14881;48.092;11.574;2023-01-25T03:49:16;96796.09;;;-0.03;100.00
27429;BME280;14881;48.092;11.574;2023-01-25T03:51:51;96798.94;;;-0.04;100.00
27429;BME280;14881;48.092;11.574;2023-01-25T03:54:19;96792.78;;;-0.05;100.00
27429;BME280;14881;48.092;11.574;2023-01-25T03:56:46;96797.72;;;-0.02;100.00
27429;BME280;14881;48.092;11.574;2023-01-25T03:59:14;96793.81;;;0.01;100.00
27429;BME280;14881;48.092;11.574;2023-01-25T04:01:42;96797.09;;;-0.04;100.00
27429;BME280;14881;48.092;11.574;2023-01-25T04:04:10;96801.66;;;0.03;100.00
27429;BME280;14881;48.092;11.574;2023-01-25T04:06:37;96796.50;;;0.01;100.00
27429;BME280;14881;48.092;11.574;2023-01-25T04:09:07;96794.88;;;0.00;100.00
27429;BME280;14881;48.092;11.574;2023-01-25T04:11:35;96805.56;;;0.00;100.00
27429;BME280;14881;48.092;11.574;2023-01-25T04:14:02;96795.75;;;0.07;100.00
27429;BME280;14881;48.092;11.574;2023-01-25T04:16:30;96794.91;;;0.07;100.00
27429;BME280;14881;48.092;11.574;2023-01-25T04:18:58;96798.16;;;0.02;100.00
27429;BME280;14881;48.092;11.574;2023-01-25T04:21:25;96790.41;;;0.07;100.00
27429;BME280;14881;48.092;11.574;2023-01-25T04:23:53;96786.03;;;-0.01;100.00
27429;BME280;14881;48.092;11.574;2023-01-25T04:26:22;96788.09;;;0.04;100.00
27429;BME280;14881;48.092;11.574;2023-01-25T04:28:50;96780.72;;;0.06;100.00
27429;BME280;14881;48.092;11.574;2023-01-25T04:31:21;96773.16;;;0.10;100.00
27429;BME280;14881;48.092;11.574;2023-01-25T04:33:48;96781.56;;;0.07;100.00
27429;BME280;14881;48.092;11.574;2023-01-25T04:36:16;96781.75;;;0.05;100.00
27429;BME280;14881;48.092;11.574;2023-01-25T04:38:44;96782.13;;;0.02;100.00
27429;BME280;14881;48.092;11.574;2023-01-25T04:41:12;96784.78;;;0.02;100.00
27429;BME280;14881;48.092;11.574;2023-01-25T04:43:46;96785.44;;;0.04;100.00
27429;BME280;14881;48.092;11.574;2023-01-25T04:46:17;96779.91;;;0.06;100.00
27429;BME280;14881;48.092;11.574;2023-01-25T04:48:45;96768.00;;;0.08;100.00
27429;BME280;14881;48.092;11.574;2023-01-25T04:51:15;96767.94;;;0.02;100.00
27429;BME280;14881;48.092;11.574;2023-01-25T04:53:46;96767.34;;;-0.01;100.00
27429;BME280;14881;48.092;11.574;2023-01-25T04:56:14;96765.69;;;-0.02;100.00
27429;BME280;14881;48.092;11.574;2023-01-25T04:58:42;96758.69;;;-0.03;100.00
27429;BME280;14881;48.092;11.574;2023-01-25T05:01:11;96754.09;;;-0.09;100.00
27429;BME280;14881;48.092;11.574;2023-01-25T05:03:39;96752.63;;;-0.11;100.00
27429;BME280;14881;48.092;11.574;2023-01-25T05:06:07;96752.63;;;-0.11;100.00
27429;BME280;14881;48.092;11.574;2023-01-25T05:08:37;96753.34;;;-0.03;100.00
27429;BME280;14881;48.092;11.574;2023-01-25T05:11:05;96748.19;;;-0.04;100.00
27429;BME280;14881;48.092;11.574;2023-01-25T05:13:35;96752.06;;;-0.07;100.00
27429;BME280;14881;48.092;11.574;2023-01-25T05:16:04;96749.22;;;-0.05;100.00
27429;BME280;14881;48.092;11.574;2023-01-25T05:18:36;96749.22;;;-0.05;100.00
27429;BME280;14881;48.092;11.574;2023-01-25T05:21:14;96751.25;;;-0.07;100.00
27429;BME280;14881;48.092;11.574;2023-01-25T05:23:56;96741.19;;;-0.05;100.00
27429;BME280;14881;48.092;11.574;2023-01-25T05:26:23;96746.91;;;-0.08;100.00
27429;BME280;14881;48.092;11.574;2023-01-25T05:29:10;96739.34;;;-0.05;100.00
27429;BME280;14881;48.092;11.574;2023-01-25T05:31:38;96736.72;;;0.02;100.00
27429;BME280;14881;48.092;11.574;2023-01-25T05:34:08;96741.22;;;0.02;100.00
27429;BME280;14881;48.092;11.574;2023-01-25T05:36:36;96736.13;;;0.00;100.00
27429;BME280;14881;48.092;11.574;2023-01-25T05:39:06;96743.69;;;-0.04;100.00
27429;BME280;14881;48.092;11.574;2023-01-25T05:41:34;96741.00;;;-0.04;100.00
27429;BME280;14881;48.092;11.574;2023-01-25T05:44:03;96739.72;;;-0.08;100.00
27429;BME280;14881;48.092;11.574;2023-01-25T05:46:30;96743.91;;;0.02;100.00
27429;BME280;14881;48.092;11.574;2023-01-25T05:48:58;96745.81;;;0.08;100.00
27429;BME280;14881;48.092;11.574;2023-01-25T05:51:27;96745.16;;;-0.01;100.00
27429;BME280;14881;48.092;11.574;2023-01-25T05:53:55;96746.34;;;-0.04;100.00
27429;BME280;14881;48.092;11.574;2023-01-25T05:56:23;96742.66;;;-0.03;100.00
27429;BME280;14881;48.092;11.574;2023-01-25T05:58:54;96747.19;;;-0.03;100.00
27429;BME280;14881;48.092;11.574;2023-01-25T06:01:22;96739.09;;;-0.10;100.00
27429;BME280;14881;48.092;11.574;2023-01-25T06:03:50;96739.72;;;-0.08;100.00
27429;BME280;14881;48.092;11.574;2023-01-25T06:06:18;96742.66;;;-0.03;100.00
27429;BME280;14881;48.092;11.574;2023-01-25T06:08:48;96738.97;;;-0.02;100.00
27429;BME280;14881;48.092;11.574;2023-01-25T06:11:18;96739.28;;;-0.11;100.00
27429;BME280;14881;48.092;11.574;2023-01-25T06:13:46;96729.31;;;-0.03;100.00
27429;BME280;14881;48.092;11.574;2023-01-25T06:16:14;96728.47;;;-0.03;100.00
27429;BME280;14881;48.092;11.574;2023-01-25T06:18:45;96728.28;;;-0.02;100.00
27429;BME280;14881;48.092;11.574;2023-01-25T06:21:16;96726.63;;;-0.03;100.00
27429;BME280;14881;48.092;11.574;2023-01-25T06:23:44;96722.50;;;-0.05;100.00
27429;BME280;14881;48.092;11.574;2023-01-25T06:26:14;96719.38;;;-0.09;100.00
27429;BME280;14881;48.092;11.574;2023-01-25T06:28:42;96727.22;;;-0.07;100.00
27429;BME280;14881;48.092;11.574;2023-01-25T06:31:11;96723.53;;;-0.06;100.00
27429;BME280;14881;48.092;11.574;2023-01-25T06:33:46;96717.59;;;-0.02;100.00
27429;BME280;14881;48.092;11.574;2023-01-25T06:36:17;96717.78;;;-0.03;100.00
27429;BME280;14881;48.092;11.574;2023-01-25T06:38:48;96718.81;;;-0.04;100.00
27429;BME280;14881;48.092;11.574;2023-01-25T06:41:18;96720.09;;;0.00;100.00
27429;BME280;14881;48.092;11.574;2023-01-25T06:43:49;96724.19;;;0.03;100.00
27429;BME280;14881;48.092;11.574;2023-01-25T06:46:18;96719.69;;;0.03;100.00
27429;BME280;14881;48.092;11.574;2023-01-25T06:48:46;96718.03;;;0.02;100.00
27429;BME280;14881;48.092;11.574;2023-01-25T06:51:15;96710.81;;;-0.04;100.00
27429;BME280;14881;48.092;11.574;2023-01-25T06:53:44;96715.34;;;0.02;100.00
27429;BME280;14881;48.092;11.574;2023-01-25T06:56:14;96703.47;;;0.05;100.00
27429;BME280;14881;48.092;11.574;2023-01-25T06:58:46;96701.97;;;-0.05;100.00
27429;BME280;14881;48.092;11.574;2023-01-25T07:01:16;96692.28;;;-0.06;100.00
27429;BME280;14881;48.092;11.574;2023-01-25T07:03:47;96697.44;;;-0.04;100.00
27429;BME280;14881;48.092;11.574;2023-01-25T07:06:15;96688.81;;;-0.06;100.00
27429;BME280;14881;48.092;11.574;2023-01-25T07:08:42;96684.22;;;-0.12;100.00
27429;BME280;14881;48.092;11.574;2023-01-25T07:11:11;96685.13;;;-0.05;100.00
27429;BME280;14881;48.092;11.574;2023-01-25T07:13:40;96685.13;;;0.02;100.00
27429;BME280;14881;48.092;11.574;2023-01-25T07:16:12;96680.41;;;-0.03;100.00
27429;BME280;14881;48.092;11.574;2023-01-25T07:18:40;96684.31;;;0.01;100.00
27429;BME280;14881;48.092;11.574;2023-01-25T07:21:10;96681.22;;;-0.03;100.00
27429;BME280;14881;48.092;11.574;2023-01-25T07:23:39;96685.94;;;-0.05;100.00
27429;BME280;14881;48.092;11.574;2023-01-25T07:26:16;96681.66;;;0.01;100.00
27429;BME280;14881;48.092;11.574;2023-01-25T07:28:47;96685.75;;;-0.03;100.00
27429;BME280;14881;48.092;11.574;2023-01-25T07:31:17;96674.44;;;-0.05;100.00
27429;BME280;14881;48.092;11.574;2023-01-25T07:33:46;96671.75;;;-0.05;100.00
27429;BME280;14881;48.092;11.574;2023-01-25T07:36:15;96676.91;;;-0.04;100.00
27429;BME280;14881;48.092;11.574;2023-01-25T07:38:43;96679.81;;;0.02;100.00
27429;BME280;14881;48.092;11.574;2023-01-25T07:41:10;96685.38;;;0.00;100.00
27429;BME280;14881;48.092;11.574;2023-01-25T07:43:38;96687.00;;;0.01;100.00
27429;BME280;14881;48.092;11.574;2023-01-25T07:46:08;96681.88;;;-0.01;100.00
27429;BME280;14881;48.092;11.574;2023-01-25T07:48:39;96691.31;;;0.02;100.00
27429;BME280;14881;48.092;11.574;2023-01-25T07:51:08;96682.44;;;-0.05;100.00
27429;BME280;14881;48.092;11.574;2023-01-25T07:53:49;96688.41;;;-0.03;100.00
27429;BME280;14881;48.092;11.574;2023-01-25T07:56:18;96688.84;;;0.00;100.00
27429;BME280;14881;48.092;11.574;2023-01-25T07:58:47;96683.94;;;0.04;100.00
27429;BME280;14881;48.092;11.574;2023-01-25T08:01:17;96686.75;;;-0.04;100.00
27429;BME280;14881;48.092;11.574;2023-01-25T08:03:47;96696.06;;;0.00;100.00
27429;BME280;14881;48.092;11.574;2023-01-25T08:06:15;96693.41;;;0.07;100.00
27429;BME280;14881;48.092;11.574;2023-01-25T08:08:46;96691.72;;;-0.01;100.00
27429;BME280;14881;48.092;11.574;2023-01-25T08:11:18;96688.03;;;0.00;100.00
27429;BME280;14881;48.092;11.574;2023-01-25T08:13:47;96693.59;;;0.05;100.00
27429;BME280;14881;48.092;11.574;2023-01-25T08:16:17;96687.41;;;-0.02;100.00
27429;BME280;14881;48.092;11.574;2023-01-25T08:18:47;96685.13;;;-0.05;100.00
27429;BME280;14881;48.092;11.574;2023-01-25T08:21:16;96689.44;;;-0.04;100.00
27429;BME280;14881;48.092;11.574;2023-01-25T08:23:46;96684.00;;;0.11;100.00
27429;BME280;14881;48.092;11.574;2023-01-25T08:26:14;96684.38;;;0.08;100.00
27429;BME280;14881;48.092;11.574;2023-01-25T08:28:43;96683.09;;;0.04;100.00
27429;BME280;14881;48.092;11.574;2023-01-25T08:31:14;96680.03;;;0.00;100.00
27429;BME280;14881;48.092;11.574;2023-01-25T08:33:42;96678.56;;;-0.03;100.00
27429;BME280;14881;48.092;11.574;2023-01-25T08:36:13;96681.88;;;-0.01;100.00
27429;BME280;14881;48.092;11.574;2023-01-25T08:38:42;96680.25;;;0.05;100.00
27429;BME280;14881;48.092;11.574;2023-01-25T08:41:11;96680.25;;;0.05;100.00
27429;BME280;14881;48.092;11.574;2023-01-25T08:43:40;96678.84;;;0.09;100.00
27429;BME280;14881;48.092;11.574;2023-01-25T08:46:08;96671.50;;;0.18;100.00
27429;BME280;14881;48.092;11.574;2023-01-25T08:48:36;96676.81;;;0.11;100.00
27429;BME280;14881;48.092;11.574;2023-01-25T08:51:06;96670.38;;;0.06;100.00
27429;BME280;14881;48.092;11.574;2023-01-25T08:53:35;96666.94;;;0.12;100.00
27429;BME280;14881;48.092;11.574;2023-01-25T08:56:04;96669.22;;;0.15;100.00
27429;BME280;14881;48.092;11.574;2023-01-25T08:58:35;96669.44;;;0.13;100.00
27429;BME280;14881;48.092;11.574;2023-01-25T09:01:06;96672.91;;;0.14;100.00
27429;BME280;14881;48.092;11.574;2023-01-25T09:03:34;96665.34;;;0.17;100.00
27429;BME280;14881;48.092;11.574;2023-01-25T09:06:03;96658.56;;;0.21;100.00
27429;BME280;14881;48.092;11.574;2023-01-25T09:08:31;96650.72;;;0.13;100.00
27429;BME280;14881;48.092;11.574;2023-01-25T09:11:01;96657.09;;;0.12;100.00
27429;BME280;14881;48.092;11.574;2023-01-25T09:13:29;96654.03;;;0.15;100.00
27429;BME280;14881;48.092;11.574;2023-01-25T09:16:01;96641.31;;;0.17;100.00
27429;BME280;14881;48.092;11.574;2023-01-25T09:18:29;96645.75;;;0.10;100.00
27429;BME280;14881;48.092;11.574;2023-01-25T09:20:57;96651.31;;;0.09;100.00
27429;BME280;14881;48.092;11.574;2023-01-25T09:23:25;96643.47;;;0.07;100.00
27429;BME280;14881;48.092;11.574;2023-01-25T09:25:56;96649.41;;;0.03;100.00
27429;BME280;14881;48.092;11.574;2023-01-25T09:28:26;96639.59;;;0.10;100.00
27429;BME280;14881;48.092;11.574;2023-01-25T09:30:55;96649.06;;;0.12;100.00
27429;BME280;14881;48.092;11.574;2023-01-25T09:33:43;96646.34;;;0.06;100.00
27429;BME280;14881;48.092;11.574;2023-01-25T09:36:11;96653.53;;;0.05;100.00
27429;BME280;14881;48.092;11.574;2023-01-25T09:38:41;96644.94;;;0.10;100.00
27429;BME280;14881;48.092;11.574;2023-01-25T09:41:17;96654.16;;;0.07;100.00
27429;BME280;14881;48.092;11.574;2023-01-25T09:44:11;96649.25;;;0.11;100.00
27429;BME280;14881;48.092;11.574;2023-01-25T09:46:43;96647.03;;;0.14;100.00
27429;BME280;14881;48.092;11.574;2023-01-25T09:49:44;96643.56;;;0.20;100.00
27429;BME280;14881;48.092;11.574;2023-01-25T09:52:29;96643.81;;;0.25;100.00
27429;BME280;14881;48.092;11.574;2023-01-25T09:55:01;96633.69;;;0.21;100.00
27429;BME280;14881;48.092;11.574;2023-01-25T09:57:32;96641.81;;;0.34;100.00
27429;BME280;14881;48.092;11.574;2023-01-25T10:00:10;96638.25;;;0.27;100.00
27429;BME280;14881;48.092;11.574;2023-01-25T10:02:44;96630.88;;;0.29;100.00
27429;BME280;14881;48.092;11.574;2023-01-25T10:05:19;96629.19;;;0.21;100.00
27429;BME280;14881;48.092;11.574;2023-01-25T10:07:54;96622.44;;;0.25;100.00
27429;BME280;14881;48.092;11.574;2023-01-25T10:10:29;96622.19;;;0.20;100.00
27429;BME280;14881;48.092;11.574;2023-01-25T10:12:59;96618.09;;;0.24;100.00
27429;BME280;14881;48.092;11.574;2023-01-25T10:15:33;96617.91;;;0.26;100.00
27429;BME280;14881;48.092;11.574;2023-01-25T10:18:05;96608.81;;;0.14;100.00
27429;BME280;14881;48.092;11.574;2023-01-25T10:20:43;96613.16;;;0.21;100.00
27429;BME280;14881;48.092;11.574;2023-01-25T10:23:28;96613.97;;;0.15;100.00
27429;BME280;14881;48.092;11.574;2023-01-25T10:26:00;96608.19;;;0.18;100.00
27429;BME280;14881;48.092;11.574;2023-01-25T10:28:40;96598.97;;;0.21;100.00
27429;BME280;14881;48.092;11.574;2023-01-25T10:31:16;96595.06;;;0.17;100.00
27429;BME280;14881;48.092;11.574;2023-01-25T10:33:47;96602.66;;;0.20;100.00
27429;BME280;14881;48.092;11.574;2023-01-25T10:36:16;96600.03;;;0.26;100.00
27429;BME280;14881;48.092;11.574;2023-01-25T10:38:47;96599.84;;;0.28;100.00
27429;BME280;14881;48.092;11.574;2023-01-25T10:41:20;96591.97;;;0.20;100.00
27429;BME280;14881;48.092;11.574;2023-01-25T10:43:52;96592.25;;;0.31;100.00
27429;BME280;14881;48.092;11.574;2023-01-25T10:46:52;96585.06;;;0.39;100.00
27429;BME280;14881;48.092;11.574;2023-01-25T10:49:25;96587.09;;;0.30;100.00
27429;BME280;14881;48.092;11.574;2023-01-25T10:51:55;96580.97;;;0.43;100.00
27429;BME280;14881;48.092;11.574;2023-01-25T10:54:23;96582.59;;;0.37;100.00
27429;BME280;14881;48.092;11.574;2023-01-25T10:56:56;96572.53;;;0.32;100.00
27429;BME280;14881;48.092;11.574;2023-01-25T10:59:27;96571.28;;;0.35;100.00
27429;BME280;14881;48.092;11.574;2023-01-25T11:02:37;96568.00;;;0.33;100.00
27429;BME280;14881;48.092;11.574;2023-01-25T11:05:29;96559.38;;;0.38;100.00
27429;BME280;14881;48.092;11.574;2023-01-25T11:07:58;96555.91;;;0.44;100.00
27429;BME280;14881;48.092;11.574;2023-01-25T11:10:42;96555.13;;;0.50;100.00
27429;BME280;14881;48.092;11.574;2023-01-25T11:13:23;96544.63;;;0.48;100.00
27429;BME280;14881;48.092;11.574;2023-01-25T11:15:53;96540.31;;;0.47;100.00
27429;BME280;14881;48.092;11.574;2023-01-25T11:18:24;96527.13;;;0.52;100.00
27429;BME280;14881;48.092;11.574;2023-01-25T11:21:04;96533.72;;;0.50;100.00
27429;BME280;14881;48.092;11.574;2023-01-25T11:23:32;96539.66;;;0.45;100.00
27429;BME280;14881;48.092;11.574;2023-01-25T11:26:13;96524.03;;;0.42;100.00
27429;BME280;14881;48.092;11.574;2023-01-25T11:28:45;96518.91;;;0.54;100.00
27429;BME280;14881;48.092;11.574;2023-01-25T11:31:19;96519.94;;;0.53;100.00
27429;BME280;14881;48.092;11.574;2023-01-25T11:33:51;96513.56;;;0.47;100.00
27429;BME280;14881;48.092;11.574;2023-01-25T11:36:25;96517.91;;;0.61;100.00
27429;BME280;14881;48.092;11.574;2023-01-25T11:39:09;96509.91;;;0.61;100.00
27429;BME280;14881;48.092;11.574;2023-01-25T11:41:53;96503.69;;;0.54;100.00
27429;BME280;14881;48.092;11.574;2023-01-25T11:44:41;96497.34;;;0.62;100.00
27429;BME280;14881;48.092;11.574;2023-01-25T11:47:20;96494.84;;;0.47;100.00
27429;BME280;14881;48.092;11.574;2023-01-25T11:50:01;96494.47;;;0.50;100.00
27429;BME280;14881;48.092;11.574;2023-01-25T11:52:38;96493.22;;;0.46;100.00
27429;BME280;14881;48.092;11.574;2023-01-25T11:55:19;96481.91;;;0.51;100.00
27429;BME280;14881;48.092;11.574;2023-01-25T11:58:00;96475.13;;;0.48;100.00
27429;BME280;14881;48.092;11.574;2023-01-25T12:00:55;96474.53;;;0.59;100.00
27429;BME280;14881;48.092;11.574;2023-01-25T12:04:11;96463.63;;;0.61;100.00
27429;BME280;14881;48.092;11.574;2023-01-25T12:06:55;96455.59;;;0.61;100.00
27429;BME280;14881;48.092;11.574;2023-01-25T12:09:38;96456.22;;;0.69;100.00
27429;BME280;14881;48.092;11.574;2023-01-25T12:12:24;96446.34;;;0.63;100.00
27429;BME280;14881;48.092;11.574;2023-01-25T12:15:23;96434.63;;;0.58;100.00
27429;BME280;14881;48.092;11.574;2023-01-25T12:18:07;96430.91;;;0.59;100.00
27429;BME280;14881;48.092;11.574;2023-01-25T12:20:59;96430.09;;;0.58;100.00
27429;BME280;14881;48.092;11.574;2023-01-25T12:23:41;96425.56;;;0.59;100.00
27429;BME280;14881;48.092;11.574;2023-01-25T12:26:19;96423.09;;;0.57;100.00
27429;BME280;14881;48.092;11.574;2023-01-25T12:28:56;96427.41;;;0.58;100.00
27429;BME280;14881;48.092;11.574;2023-01-25T12:31:34;96411.16;;;0.53;100.00
27429;BME280;14881;48.092;11.574;2023-01-25T12:34:09;96413.63;;;0.42;100.00
27429;BME280;14881;48.092;11.574;2023-01-25T12:36:42;96408.50;;;0.47;100.00
27429;BME280;14881;48.092;11.574;2023-01-25T12:39:15;96406.66;;;0.60;100.00
27429;BME280;14881;48.092;11.574;2023-01-25T12:41:47;96409.53;;;0.52;100.00
27429;BME280;14881;48.092;11.574;2023-01-25T12:44:18;96400.28;;;0.55;100.00
27429;BME280;14881;48.092;11.574;2023-01-25T12:46:53;96401.72;;;0.51;100.00
27429;BME280;14881;48.092;11.574;2023-01-25T12:49:27;96395.34;;;0.52;100.00
27429;BME280;14881;48.092;11.574;2023-01-25T12:52:00;96389.56;;;0.55;100.00
27429;BME280;14881;48.092;11.574;2023-01-25T12:54:36;96382.00;;;0.52;100.00
27429;BME280;14881;48.092;11.574;2023-01-25T12:57:10;96380.94;;;0.59;100.00
27429;BME280;14881;48.092;11.574;2023-01-25T12:59:48;96387.53;;;0.57;100.00
27429;BME280;14881;48.092;11.574;2023-01-25T13:02:33;96376.41;;;0.53;100.00
27429;BME280;14881;48.092;11.574;2023-01-25T13:05:15;96379.91;;;0.54;100.00
27429;BME280;14881;48.092;11.574;2023-01-25T13:07:50;96374.97;;;0.57;100.00
27429;BME280;14881;48.092;11.574;2023-01-25T13:10:30;96369.84;;;0.49;100.00
27429;BME280;14881;48.092;11.574;2023-01-25T13:13:01;96368.63;;;0.45;100.00